sensor_id;sensor_type;location;lat;lon;timestamp;pressure;altitude;pressure_sealevel;temperature;humidity
48614;BME280;34408;51.426;5.444;2024-02-26T00:02:09;99741.22;;;8.76;63.40
48614;BME280;34408;51.426;5.444;2024-02-26T00:04:37;99741.44;;;8.74;63.44
48614;BME280;34408;51.426;5.444;2024-02-26T00:07:06;99741.22;;;8.76;63.39
48614;BME280;34408;51.426;5.444;2024-02-26T00:09:34;99746.56;;;8.76;63.80
48614;BME280;34408;51.426;5.444;2024-02-26T00:12:04;99742.25;;;8.75;63.00
48614;BME280;34408;51.426;5.444;2024-02-26T00:14:31;99745.75;;;8.75;63.24
48614;BME280;34408;51.426;5.444;2024-02-26T00:16:59;99745.75;;;8.75;63.41
48614;BME280;34408;51.426;5.444;2024-02-26T00:19:27;99744.69;;;8.76;63.55
48614;BME280;34408;51.426;5.444;2024-02-26T00:21:55;99746.00;;;8.74;63.12
48614;BME280;34408;51.426;5.444;2024-02-26T00:24:23;99732.59;;;8.74;63.36
48614;BME280;34408;51.426;5.444;2024-02-26T00:26:51;99731.78;;;8.73;63.44
48614;BME280;34408;51.426;5.444;2024-02-26T00:29:21;99734.47;;;8.73;63.47
48614;BME280;34408;51.426;5.444;2024-02-26T00:31:49;99737.13;;;8.73;63.52
48614;BME280;34408;51.426;5.444;2024-02-26T00:34:17;99739.25;;;8.71;63.46
48614;BME280;34408;51.426;5.444;2024-02-26T00:36:45;99744.84;;;8.70;63.23
48614;BME280;34408;51.426;5.444;2024-02-26T00:39:13;99733.31;;;8.69;63.25
48614;BME280;34408;51.426;5.444;2024-02-26T00:41:42;99721.19;;;8.67;62.98
48614;BME280;34408;51.426;5.444;2024-02-26T00:44:10;99722.28;;;8.66;63.25
48614;BME280;34408;51.426;5.444;2024-02-26T00:46:38;99723.34;;;8.65;63.22
48614;BME280;34408;51.426;5.444;2024-02-26T00:49:05;99716.94;;;8.66;63.33
48614;BME280;34408;51.426;5.444;2024-02-26T00:51:33;99721.19;;;8.67;63.72
48614;BME280;34408;51.426;5.444;2024-02-26T00:54:02;99716.66;;;8.67;64.04
48614;BME280;34408;51.426;5.444;2024-02-26T00:56:29;99720.88;;;8.63;63.26
48614;BME280;34408;51.426;5.444;2024-02-26T00:58:59;99720.06;;;8.63;63.63
48614;BME280;34408;51.426;5.444;2024-02-26T01:01:26;99716.59;;;8.62;63.61
48614;BME280;34408;51.426;5.444;2024-02-26T01:03:54;99724.03;;;8.60;63.62
48614;BME280;34408;51.426;5.444;2024-02-26T01:06:22;99725.91;;;8.60;63.56
48614;BME280;34408;51.426;5.444;2024-02-26T01:08:50;99728.81;;;8.58;63.69
48614;BME280;34408;51.426;5.444;2024-02-26T01:11:18;99730.09;;;8.56;63.88
48614;BME280;34408;51.426;5.444;2024-02-26T01:13:46;99734.66;;;8.55;64.37
48614;BME280;34408;51.426;5.444;2024-02-26T01:16:15;99734.41;;;8.57;63.87
48614;BME280;34408;51.426;5.444;2024-02-26T01:18:43;99736.28;;;8.56;64.46
48614;BME280;34408;51.426;5.444;2024-02-26T01:21:11;99743.25;;;8.57;64.75
48614;BME280;34408;51.426;5.444;2024-02-26T01:23:39;99728.72;;;8.53;63.79
48614;BME280;34408;51.426;5.444;2024-02-26T01:26:07;99734.06;;;8.53;64.46
48614;BME280;34408;51.426;5.444;2024-02-26T01:28:34;99742.44;;;8.57;64.16
48614;BME280;34408;51.426;5.444;2024-02-26T01:31:02;99735.34;;;8.51;64.52
48614;BME280;34408;51.426;5.444;2024-02-26T01:33:33;99745.59;;;8.54;64.07
48614;BME280;34408;51.426;5.444;2024-02-26T01:36:01;99747.69;;;8.52;64.51
48614;BME280;34408;51.426;5.444;2024-02-26T01:38:29;99755.72;;;8.52;64.89
48614;BME280;34408;51.426;5.444;2024-02-26T01:40:57;99755.72;;;8.52;64.31
48614;BME280;34408;51.426;5.444;2024-02-26T01:43:24;99762.72;;;8.53;65.11
48614;BME280;34408;51.426;5.444;2024-02-26T01:45:52;99758.16;;;8.53;64.83
48614;BME280;34408;51.426;5.444;2024-02-26T01:48:21;99758.97;;;8.54;64.92
48614;BME280;34408;51.426;5.444;2024-02-26T01:50:50;99763.53;;;8.53;64.53
48614;BME280;34408;51.426;5.444;2024-02-26T01:53:18;99758.63;;;8.50;64.81
48614;BME280;34408;51.426;5.444;2024-02-26T01:55:47;99756.66;;;8.45;64.71
48614;BME280;34408;51.426;5.444;2024-02-26T01:58:15;99762.03;;;8.45;65.21
48614;BME280;34408;51.426;5.444;2024-02-26T02:00:43;99769.47;;;8.43;65.52
48614;BME280;34408;51.426;5.444;2024-02-26T02:03:11;99765.75;;;8.44;64.97
48614;BME280;34408;51.426;5.444;2024-02-26T02:05:39;99762.03;;;8.45;65.71
48614;BME280;34408;51.426;5.444;2024-02-26T02:08:11;99760.16;;;8.46;65.99
48614;BME280;34408;51.426;5.444;2024-02-26T02:10:39;99767.59;;;8.44;65.28
48614;BME280;34408;51.426;5.444;2024-02-26T02:13:07;99758.53;;;8.45;66.13
48614;BME280;34408;51.426;5.444;2024-02-26T02:15:34;99759.00;;;8.42;65.64
48614;BME280;34408;51.426;5.444;2024-02-26T02:18:03;99743.06;;;8.35;66.15
48614;BME280;34408;51.426;5.444;2024-02-26T02:20:33;99751.09;;;8.35;66.38
48614;BME280;34408;51.426;5.444;2024-02-26T02:23:02;99747.38;;;8.36;66.45
48614;BME280;34408;51.426;5.444;2024-02-26T02:25:29;99755.63;;;8.35;66.75
48614;BME280;34408;51.426;5.444;2024-02-26T02:27:57;99754.56;;;8.36;66.38
48614;BME280;34408;51.426;5.444;2024-02-26T02:30:28;99752.38;;;8.33;66.91
48614;BME280;34408;51.426;5.444;2024-02-26T02:32:57;99752.81;;;8.30;66.60
48614;BME280;34408;51.426;5.444;2024-02-26T02:35:26;99752.00;;;8.29;66.49
48614;BME280;34408;51.426;5.444;2024-02-26T02:37:56;99751.88;;;8.24;67.13
48614;BME280;34408;51.426;5.444;2024-02-26T02:40:24;99753.75;;;8.24;67.32
48614;BME280;34408;51.426;5.444;2024-02-26T02:42:52;99752.09;;;8.23;66.62
48614;BME280;34408;51.426;5.444;2024-02-26T02:45:20;99746.19;;;8.21;67.49
48614;BME280;34408;51.426;5.444;2024-02-26T02:47:48;99757.13;;;8.19;67.15
48614;BME280;34408;51.426;5.444;2024-02-26T02:50:16;99756.75;;;8.15;67.11
48614;BME280;34408;51.426;5.444;2024-02-26T02:52:44;99754.91;;;8.16;67.41
48614;BME280;34408;51.426;5.444;2024-02-26T02:55:13;99753.75;;;8.12;67.25
48614;BME280;34408;51.426;5.444;2024-02-26T02:57:41;99750.25;;;8.11;67.00
48614;BME280;34408;51.426;5.444;2024-02-26T03:00:10;99751.53;;;8.09;67.33
48614;BME280;34408;51.426;5.444;2024-02-26T03:02:38;99752.34;;;8.09;67.03
48614;BME280;34408;51.426;5.444;2024-02-26T03:05:06;99752.56;;;8.08;68.06
48614;BME280;34408;51.426;5.444;2024-02-26T03:07:34;99756.06;;;8.08;66.96
48614;BME280;34408;51.426;5.444;2024-02-26T03:10:02;99757.09;;;8.07;67.69
48614;BME280;34408;51.426;5.444;2024-02-26T03:12:31;99750.38;;;8.05;67.07
48614;BME280;34408;51.426;5.444;2024-02-26T03:14:59;99755.94;;;8.03;67.16
48614;BME280;34408;51.426;5.444;2024-02-26T03:17:29;99752.22;;;8.04;67.58
48614;BME280;34408;51.426;5.444;2024-02-26T03:19:57;99757.34;;;8.06;67.32
48614;BME280;34408;51.426;5.444;2024-02-26T03:22:24;99759.19;;;8.05;67.66
48614;BME280;34408;51.426;5.444;2024-02-26T03:24:52;99759.44;;;8.04;67.87
48614;BME280;34408;51.426;5.444;2024-02-26T03:27:20;99753.50;;;8.02;67.50
48614;BME280;34408;51.426;5.444;2024-02-26T03:29:49;99762.81;;;7.99;67.84
48614;BME280;34408;51.426;5.444;2024-02-26T03:32:17;99764.44;;;8.00;67.69
48614;BME280;34408;51.426;5.444;2024-02-26T03:34:45;99758.50;;;7.98;68.30
48614;BME280;34408;51.426;5.444;2024-02-26T03:37:13;99753.97;;;7.99;67.45
48614;BME280;34408;51.426;5.444;2024-02-26T03:39:41;99759.53;;;7.97;67.73
48614;BME280;34408;51.426;5.444;2024-02-26T03:42:09;99769.19;;;7.98;68.51
48614;BME280;34408;51.426;5.444;2024-02-26T03:44:37;99760.00;;;7.94;68.24
48614;BME280;34408;51.426;5.444;2024-02-26T03:47:06;99766.16;;;7.95;67.57
48614;BME280;34408;51.426;5.444;2024-02-26T03:49:34;99764.31;;;7.95;68.30
48614;BME280;34408;51.426;5.444;2024-02-26T03:52:02;99760.00;;;7.94;67.79
48614;BME280;34408;51.426;5.444;2024-02-26T03:54:30;99770.72;;;7.94;67.84
48614;BME280;34408;51.426;5.444;2024-02-26T03:56:58;99762.09;;;7.92;68.35
48614;BME280;34408;51.426;5.444;2024-02-26T03:59:25;99765.59;;;7.93;67.91
48614;BME280;34408;51.426;5.444;2024-02-26T04:01:53;99761.50;;;7.90;68.40
48614;BME280;34408;51.426;5.444;2024-02-26T04:04:22;99772.81;;;7.92;67.35
48614;BME280;34408;51.426;5.444;2024-02-26T04:06:50;99766.88;;;7.90;68.20
48614;BME280;34408;51.426;5.444;2024-02-26T04:09:18;99772.22;;;7.90;68.01
48614;BME280;34408;51.426;5.444;2024-02-26T04:11:46;99774.06;;;7.90;67.97
48614;BME280;34408;51.426;5.444;2024-02-26T04:14:14;99777.34;;;7.92;68.30
48614;BME280;34408;51.426;5.444;2024-02-26T04:16:42;99772.22;;;7.90;68.25
48614;BME280;34408;51.426;5.444;2024-02-26T04:19:09;99777.78;;;7.89;68.18
48614;BME280;34408;51.426;5.444;2024-02-26T04:21:41;99785.22;;;7.87;68.00
48614;BME280;34408;51.426;5.444;2024-02-26T04:24:09;99780.69;;;7.87;68.19
48614;BME280;34408;51.426;5.444;2024-02-26T04:26:37;99775.59;;;7.86;68.01
48614;BME280;34408;51.426;5.444;2024-02-26T04:29:04;99775.81;;;7.84;68.44
48614;BME280;34408;51.426;5.444;2024-02-26T04:31:32;99783.03;;;7.83;68.12
48614;BME280;34408;51.426;5.444;2024-02-26T04:34:00;99795.34;;;7.84;67.95
48614;BME280;34408;51.426;5.444;2024-02-26T04:36:28;99787.56;;;7.83;68.50
48614;BME280;34408;51.426;5.444;2024-02-26T04:38:57;99792.69;;;7.84;68.24
48614;BME280;34408;51.426;5.444;2024-02-26T04:41:25;99791.84;;;7.84;68.44
48614;BME280;34408;51.426;5.444;2024-02-26T04:43:53;99791.28;;;7.82;68.43
48614;BME280;34408;51.426;5.444;2024-02-26T04:46:21;99804.88;;;7.80;68.40
48614;BME280;34408;51.426;5.444;2024-02-26T04:48:49;99805.91;;;7.79;68.89
48614;BME280;34408;51.426;5.444;2024-02-26T04:51:18;99801.63;;;7.78;68.65
48614;BME280;34408;51.426;5.444;2024-02-26T04:53:46;99790.56;;;7.75;68.71
48614;BME280;34408;51.426;5.444;2024-02-26T04:56:15;99801.25;;;7.75;68.88
48614;BME280;34408;51.426;5.444;2024-02-26T04:58:43;99797.78;;;7.74;68.22
48614;BME280;34408;51.426;5.444;2024-02-26T05:01:11;99791.84;;;7.72;69.35
48614;BME280;34408;51.426;5.444;2024-02-26T05:03:39;99797.19;;;7.72;68.88
48614;BME280;34408;51.426;5.444;2024-02-26T05:06:07;99789.97;;;7.73;67.98
48614;BME280;34408;51.426;5.444;2024-02-26T05:08:35;99796.38;;;7.72;68.90
48614;BME280;34408;51.426;5.444;2024-02-26T05:11:04;99798.91;;;7.67;68.44
48614;BME280;34408;51.426;5.444;2024-02-26T05:13:33;99811.81;;;7.70;68.44
48614;BME280;34408;51.426;5.444;2024-02-26T05:16:01;99812.63;;;7.70;68.42
48614;BME280;34408;51.426;5.444;2024-02-26T05:18:29;99811.00;;;7.69;68.69
48614;BME280;34408;51.426;5.444;2024-02-26T05:20:57;99825.44;;;7.68;69.01
48614;BME280;34408;51.426;5.444;2024-02-26T05:23:26;99809.59;;;7.67;68.98
48614;BME280;34408;51.426;5.444;2024-02-26T05:25:54;99824.84;;;7.66;68.90
48614;BME280;34408;51.426;5.444;2024-02-26T05:28:22;99814.97;;;7.67;68.53
48614;BME280;34408;51.426;5.444;2024-02-26T05:30:51;99812.88;;;7.69;69.30
48614;BME280;34408;51.426;5.444;2024-02-26T05:33:19;99810.19;;;7.69;68.56
48614;BME280;34408;51.426;5.444;2024-02-26T05:35:47;99835.09;;;7.69;68.80
48614;BME280;34408;51.426;5.444;2024-02-26T05:38:15;99829.72;;;7.69;68.50
48614;BME280;34408;51.426;5.444;2024-02-26T05:40:43;99834.25;;;7.69;69.16
48614;BME280;34408;51.426;5.444;2024-02-26T05:43:12;99842.50;;;7.67;68.88
48614;BME280;34408;51.426;5.444;2024-02-26T05:45:42;99841.47;;;7.68;68.75
48614;BME280;34408;51.426;5.444;2024-02-26T05:48:11;99847.50;;;7.64;68.98
48614;BME280;34408;51.426;5.444;2024-02-26T05:50:39;99845.19;;;7.67;68.73
48614;BME280;34408;51.426;5.444;2024-02-26T05:53:07;99862.88;;;7.68;68.42
48614;BME280;34408;51.426;5.444;2024-02-26T05:55:34;99863.91;;;7.67;68.70
48614;BME280;34408;51.426;5.444;2024-02-26T05:58:02;99866.34;;;7.69;68.71
48614;BME280;34408;51.426;5.444;2024-02-26T06:00:30;99863.91;;;7.67;68.79
48614;BME280;34408;51.426;5.444;2024-02-26T06:02:58;99870.06;;;7.68;69.18
48614;BME280;34408;51.426;5.444;2024-02-26T06:05:27;99862.19;;;7.73;68.77
48614;BME280;34408;51.426;5.444;2024-02-26T06:07:55;99863.72;;;7.80;68.74
48614;BME280;34408;51.426;5.444;2024-02-26T06:10:23;99868.88;;;7.94;68.08
48614;BME280;34408;51.426;5.444;2024-02-26T06:12:50;99867.41;;;8.09;67.55
48614;BME280;34408;51.426;5.444;2024-02-26T06:15:18;99875.81;;;8.25;66.66
48614;BME280;34408;51.426;5.444;2024-02-26T06:17:46;99872.44;;;8.29;67.02
48614;BME280;34408;51.426;5.444;2024-02-26T06:20:14;99883.84;;;8.25;67.00
48614;BME280;34408;51.426;5.444;2024-02-26T06:22:43;99875.47;;;8.21;67.24
48614;BME280;34408;51.426;5.444;2024-02-26T06:25:11;99884.06;;;8.11;67.14
48614;BME280;34408;51.426;5.444;2024-02-26T06:27:39;99894.25;;;8.03;67.10
48614;BME280;34408;51.426;5.444;2024-02-26T06:30:07;99884.25;;;7.98;67.99
48614;BME280;34408;51.426;5.444;2024-02-26T06:32:37;99897.25;;;7.95;68.52
48614;BME280;34408;51.426;5.444;2024-02-26T06:35:06;99891.78;;;7.90;68.08
48614;BME280;34408;51.426;5.444;2024-02-26T06:37:35;99896.41;;;7.82;68.13
48614;BME280;34408;51.426;5.444;2024-02-26T06:40:06;99903.03;;;7.80;68.99
48614;BME280;34408;51.426;5.444;2024-02-26T06:42:34;99906.59;;;7.74;68.73
48614;BME280;34408;51.426;5.444;2024-02-26T06:45:03;99904.16;;;7.72;68.63
48614;BME280;34408;51.426;5.444;2024-02-26T06:47:31;99902.75;;;7.70;68.50
48614;BME280;34408;51.426;5.444;2024-02-26T06:49:59;99901.94;;;7.69;69.06
48614;BME280;34408;51.426;5.444;2024-02-26T06:52:27;99902.97;;;7.68;69.33
48614;BME280;34408;51.426;5.444;2024-02-26T06:54:55;99910.63;;;7.65;69.56
48614;BME280;34408;51.426;5.444;2024-02-26T06:57:24;99904.91;;;7.61;68.78
48614;BME280;34408;51.426;5.444;2024-02-26T06:59:52;99914.81;;;7.61;69.55
48614;BME280;34408;51.426;5.444;2024-02-26T07:02:20;99925.50;;;7.61;69.36
48614;BME280;34408;51.426;5.444;2024-02-26T07:04:48;99925.72;;;7.59;68.39
48614;BME280;34408;51.426;5.444;2024-02-26T07:07:16;99936.63;;;7.58;68.38
48614;BME280;34408;51.426;5.444;2024-02-26T07:09:44;99936.63;;;7.58;68.97
48614;BME280;34408;51.426;5.444;2024-02-26T07:12:14;99938.94;;;7.54;69.36
48614;BME280;34408;51.426;5.444;2024-02-26T07:14:44;99944.75;;;7.51;68.96
48614;BME280;34408;51.426;5.444;2024-02-26T07:17:12;99948.22;;;7.51;68.61
48614;BME280;34408;51.426;5.444;2024-02-26T07:19:40;99959.16;;;7.50;69.28
48614;BME280;34408;51.426;5.444;2024-02-26T07:22:08;99963.47;;;7.51;69.52
48614;BME280;34408;51.426;5.444;2024-02-26T07:24:36;99967.75;;;7.52;68.81
48614;BME280;34408;51.426;5.444;2024-02-26T07:27:03;99971.47;;;7.51;69.31
48614;BME280;34408;51.426;5.444;2024-02-26T07:29:31;99980.53;;;7.50;69.64
48614;BME280;34408;51.426;5.444;2024-02-26T07:32:01;99981.13;;;7.34;68.78
48614;BME280;34408;51.426;5.444;2024-02-26T07:34:29;99987.59;;;6.83;72.06
48614;BME280;34408;51.426;5.444;2024-02-26T07:36:57;99997.09;;;6.79;72.30
48614;BME280;34408;51.426;5.444;2024-02-26T07:39:25;99990.88;;;6.85;71.43
48614;BME280;34408;51.426;5.444;2024-02-26T07:41:53;99996.50;;;6.95;71.19
48614;BME280;34408;51.426;5.444;2024-02-26T07:44:21;100001.34;;;7.05;71.13
48614;BME280;34408;51.426;5.444;2024-02-26T07:46:48;99995.94;;;7.11;71.34
48614;BME280;34408;51.426;5.444;2024-02-26T07:49:17;100004.13;;;7.16;70.28
48614;BME280;34408;51.426;5.444;2024-02-26T07:51:45;100008.81;;;7.21;70.41
48614;BME280;34408;51.426;5.444;2024-02-26T07:54:13;100003.84;;;7.25;70.00
48614;BME280;34408;51.426;5.444;2024-02-26T07:56:42;100013.25;;;7.27;70.42
48614;BME280;34408;51.426;5.444;2024-02-26T07:59:10;100011.78;;;7.31;70.31
48614;BME280;34408;51.426;5.444;2024-02-26T08:01:38;100017.13;;;7.31;69.90
48614;BME280;34408;51.426;5.444;2024-02-26T08:04:08;100019.59;;;7.33;70.10
48614;BME280;34408;51.426;5.444;2024-02-26T08:06:37;100020.19;;;7.35;70.02
48614;BME280;34408;51.426;5.444;2024-02-26T08:09:05;100026.56;;;7.34;69.88
48614;BME280;34408;51.426;5.444;2024-02-26T08:11:33;100028.63;;;7.32;70.33
48614;BME280;34408;51.426;5.444;2024-02-26T08:14:01;100024.94;;;7.33;70.07
48614;BME280;34408;51.426;5.444;2024-02-26T08:16:29;100024.72;;;7.34;70.23
48614;BME280;34408;51.426;5.444;2024-02-26T08:19:00;100025.38;;;7.30;69.84
48614;BME280;34408;51.426;5.444;2024-02-26T08:21:28;100033.53;;;7.35;69.40
48614;BME280;34408;51.426;5.444;2024-02-26T08:23:57;100044.22;;;7.35;69.84
48614;BME280;34408;51.426;5.444;2024-02-26T08:26:25;100043.41;;;7.34;70.38
48614;BME280;34408;51.426;5.444;2024-02-26T08:28:52;100054.09;;;7.34;70.19
48614;BME280;34408;51.426;5.444;2024-02-26T08:31:22;100053.28;;;7.34;69.86
48614;BME280;34408;51.426;5.444;2024-02-26T08:33:51;100045.72;;;7.31;70.39
48614;BME280;34408;51.426;5.444;2024-02-26T08:36:19;100060.72;;;7.32;70.03
48614;BME280;34408;51.426;5.444;2024-02-26T08:38:47;100053.72;;;7.31;70.17
48614;BME280;34408;51.426;5.444;2024-02-26T08:41:16;100065.84;;;7.33;69.77
48614;BME280;34408;51.426;5.444;2024-02-26T08:43:44;100069.94;;;7.36;70.30
48614;BME280;34408;51.426;5.444;2024-02-26T08:46:12;100072.00;;;7.34;70.60
48614;BME280;34408;51.426;5.444;2024-02-26T08:48:40;100069.78;;;7.31;70.36
48614;BME280;34408;51.426;5.444;2024-02-26T08:51:09;100072.44;;;7.31;70.07
48614;BME280;34408;51.426;5.444;2024-02-26T08:53:37;100078.00;;;7.29;70.43
48614;BME280;34408;51.426;5.444;2024-02-26T08:56:09;100088.69;;;7.29;69.89
48614;BME280;34408;51.426;5.444;2024-02-26T08:58:39;100081.50;;;7.30;70.29
48614;BME280;34408;51.426;5.444;2024-02-26T09:01:07;100081.50;;;7.30;70.42
48614;BME280;34408;51.426;5.444;2024-02-26T09:03:35;100089.72;;;7.28;70.44
48614;BME280;34408;51.426;5.444;2024-02-26T09:06:03;100095.06;;;7.28;70.33
48614;BME280;34408;51.426;5.444;2024-02-26T09:08:32;100090.56;;;7.29;70.32
48614;BME280;34408;51.426;5.444;2024-02-26T09:11:02;100093.00;;;7.30;69.75
48614;BME280;34408;51.426;5.444;2024-02-26T09:13:30;100099.16;;;7.31;70.39
48614;BME280;34408;51.426;5.444;2024-02-26T09:16:00;100105.75;;;7.28;69.89
48614;BME280;34408;51.426;5.444;2024-02-26T09:18:28;100108.44;;;7.28;70.05
48614;BME280;34408;51.426;5.444;2024-02-26T09:20:56;100105.75;;;7.28;69.94
48614;BME280;34408;51.426;5.444;2024-02-26T09:23:24;100101.91;;;7.24;69.73
48614;BME280;34408;51.426;5.444;2024-02-26T09:25:52;100122.69;;;7.22;70.28
48614;BME280;34408;51.426;5.444;2024-02-26T09:28:20;100126.38;;;7.21;70.74
48614;BME280;34408;51.426;5.444;2024-02-26T09:30:48;100128.22;;;7.21;70.71
48614;BME280;34408;51.426;5.444;2024-02-26T09:33:18;100123.72;;;7.21;70.15
48614;BME280;34408;51.426;5.444;2024-02-26T09:35:46;100128.84;;;7.23;70.54
48614;BME280;34408;51.426;5.444;2024-02-26T09:38:14;100130.69;;;7.22;69.97
48614;BME280;34408;51.426;5.444;2024-02-26T09:40:41;100137.66;;;7.23;70.20
48614;BME280;34408;51.426;5.444;2024-02-26T09:43:10;100143.25;;;7.22;70.01
48614;BME280;34408;51.426;5.444;2024-02-26T09:45:42;100140.56;;;7.22;70.18
48614;BME280;34408;51.426;5.444;2024-02-26T09:48:10;100155.56;;;7.23;70.08
48614;BME280;34408;51.426;5.444;2024-02-26T09:50:42;100153.72;;;7.23;69.83
48614;BME280;34408;51.426;5.444;2024-02-26T09:53:12;100151.03;;;7.23;69.83
48614;BME280;34408;51.426;5.444;2024-02-26T09:55:41;100152.88;;;7.23;69.95
48614;BME280;34408;51.426;5.444;2024-02-26T09:58:10;100160.09;;;7.22;70.18
48614;BME280;34408;51.426;5.444;2024-02-26T10:00:47;100157.41;;;7.22;70.75
48614;BME280;34408;51.426;5.444;2024-02-26T10:03:19;100174.69;;;7.19;70.39
48614;BME280;34408;51.426;5.444;2024-02-26T10:05:50;100176.56;;;7.19;70.79
48614;BME280;34408;51.426;5.444;2024-02-26T10:08:22;100181.28;;;7.17;70.45
48614;BME280;34408;51.426;5.444;2024-02-26T10:10:51;100179.44;;;7.17;70.09
48614;BME280;34408;51.426;5.444;2024-02-26T10:13:20;100184.19;;;7.15;70.69
48614;BME280;34408;51.426;5.444;2024-02-26T10:15:48;100182.72;;;7.19;70.38
48614;BME280;34408;51.426;5.444;2024-02-26T10:18:16;100188.28;;;7.18;70.66
48614;BME280;34408;51.426;5.444;2024-02-26T10:21:00;100202.47;;;7.18;71.04
48614;BME280;34408;51.426;5.444;2024-02-26T10:23:28;100203.72;;;7.16;70.70
48614;BME280;34408;51.426;5.444;2024-02-26T10:25:56;100202.88;;;7.15;70.69
48614;BME280;34408;51.426;5.444;2024-02-26T10:28:24;100204.13;;;7.13;70.87
48614;BME280;34408;51.426;5.444;2024-02-26T10:30:52;100221.00;;;7.13;71.37
48614;BME280;34408;51.426;5.444;2024-02-26T10:33:20;100221.19;;;7.12;70.55
48614;BME280;34408;51.426;5.444;2024-02-26T10:35:48;100225.94;;;7.10;71.20
48614;BME280;34408;51.426;5.444;2024-02-26T10:38:17;100224.53;;;7.07;71.65
48614;BME280;34408;51.426;5.444;2024-02-26T10:40:48;100237.28;;;7.05;70.94
48614;BME280;34408;51.426;5.444;2024-02-26T10:43:16;100229.47;;;7.04;71.21
48614;BME280;34408;51.426;5.444;2024-02-26T10:45:45;100248.16;;;7.04;71.19
48614;BME280;34408;51.426;5.444;2024-02-26T10:48:14;100252.69;;;7.03;71.42
48614;BME280;34408;51.426;5.444;2024-02-26T10:50:43;100250.63;;;7.05;71.03
48614;BME280;34408;51.426;5.444;2024-02-26T10:53:13;100263.16;;;7.05;71.33
48614;BME280;34408;51.426;5.444;2024-02-26T10:55:54;100259.06;;;7.02;71.00
48614;BME280;34408;51.426;5.444;2024-02-26T11:05:58;100269.56;;;6.97;71.27
48614;BME280;34408;51.426;5.444;2024-02-26T11:08:28;100264.91;;;6.93;71.15
48614;BME280;34408;51.426;5.444;2024-02-26T11:10:57;100279.22;;;6.98;72.14
48614;BME280;34408;51.426;5.444;2024-02-26T11:13:28;100264.66;;;6.94;71.15
48614;BME280;34408;51.426;5.444;2024-02-26T11:16:01;100282.28;;;7.02;71.45
48614;BME280;34408;51.426;5.444;2024-02-26T11:18:30;100284.19;;;6.95;71.14
48614;BME280;34408;51.426;5.444;2024-02-26T11:20:59;100291.97;;;6.96;71.42
48614;BME280;34408;51.426;5.444;2024-02-26T11:23:28;100290.78;;;6.92;71.50
48614;BME280;34408;51.426;5.444;2024-02-26T11:25:59;100293.22;;;6.94;71.00
48614;BME280;34408;51.426;5.444;2024-02-26T11:28:27;100296.50;;;6.96;71.95
48614;BME280;34408;51.426;5.444;2024-02-26T11:30:57;100302.44;;;6.98;71.06
48614;BME280;34408;51.426;5.444;2024-02-26T11:33:27;100300.00;;;6.96;71.35
48614;BME280;34408;51.426;5.444;2024-02-26T11:35:55;100306.97;;;6.97;71.40
48614;BME280;34408;51.426;5.444;2024-02-26T11:38:26;100302.25;;;6.99;71.42
48614;BME280;34408;51.426;5.444;2024-02-26T11:40:54;100308.81;;;7.03;71.70
48614;BME280;34408;51.426;5.444;2024-02-26T11:43:50;100309.38;;;7.12;71.08
48614;BME280;34408;51.426;5.444;2024-02-26T11:46:25;100297.38;;;7.28;71.16
48614;BME280;34408;51.426;5.444;2024-02-26T11:48:56;100306.19;;;7.35;70.35
48614;BME280;34408;51.426;5.444;2024-02-26T11:51:27;100311.75;;;7.33;70.81
48614;BME280;34408;51.426;5.444;2024-02-26T11:53:56;100312.22;;;7.24;70.83
48614;BME280;34408;51.426;5.444;2024-02-26T11:56:25;100313.63;;;7.26;70.33
48614;BME280;34408;51.426;5.444;2024-02-26T11:59:00;100318.28;;;7.44;70.75
48614;BME280;34408;51.426;5.444;2024-02-26T12:01:42;100325.56;;;7.62;69.46
48614;BME280;34408;51.426;5.444;2024-02-26T12:04:16;100316.97;;;7.84;68.93
48614;BME280;34408;51.426;5.444;2024-02-26T12:06:46;100316.44;;;8.01;68.08
48614;BME280;34408;51.426;5.444;2024-02-26T12:09:30;100318.47;;;8.05;68.33
48614;BME280;34408;51.426;5.444;2024-02-26T12:11:59;100320.75;;;8.02;67.85
48614;BME280;34408;51.426;5.444;2024-02-26T12:14:28;100328.88;;;7.89;68.31
48614;BME280;34408;51.426;5.444;2024-02-26T12:16:56;100337.53;;;7.91;68.36
48614;BME280;34408;51.426;5.444;2024-02-26T12:19:25;100334.72;;;7.79;69.46
48614;BME280;34408;51.426;5.444;2024-02-26T12:21:53;100336.63;;;7.72;69.14
48614;BME280;34408;51.426;5.444;2024-02-26T12:24:21;100330.47;;;7.96;68.40
48614;BME280;34408;51.426;5.444;2024-02-26T12:26:49;100338.25;;;8.04;68.31
48614;BME280;34408;51.426;5.444;2024-02-26T12:29:17;100346.91;;;8.00;68.13
48614;BME280;34408;51.426;5.444;2024-02-26T12:31:47;100348.19;;;7.97;68.07
48614;BME280;34408;51.426;5.444;2024-02-26T12:34:15;100355.59;;;7.95;69.06
48614;BME280;34408;51.426;5.444;2024-02-26T12:36:44;100359.41;;;7.81;68.72
48614;BME280;34408;51.426;5.444;2024-02-26T12:39:12;100359.56;;;7.86;69.06
48614;BME280;34408;51.426;5.444;2024-02-26T12:41:40;100369.06;;;7.82;69.16
48614;BME280;34408;51.426;5.444;2024-02-26T12:44:11;100368.06;;;8.08;68.33
48614;BME280;34408;51.426;5.444;2024-02-26T12:46:40;100370.78;;;8.01;68.50
48614;BME280;34408;51.426;5.444;2024-02-26T12:49:14;100373.50;;;7.95;69.05
48614;BME280;34408;51.426;5.444;2024-02-26T12:51:43;100371.13;;;7.80;69.78
48614;BME280;34408;51.426;5.444;2024-02-26T12:54:12;100375.75;;;7.66;70.12
48614;BME280;34408;51.426;5.444;2024-02-26T12:56:40;100378.03;;;7.63;70.38
48614;BME280;34408;51.426;5.444;2024-02-26T12:59:09;100385.13;;;7.82;69.84
48614;BME280;34408;51.426;5.444;2024-02-26T13:01:37;100387.06;;;8.00;69.11
48614;BME280;34408;51.426;5.444;2024-02-26T13:04:05;100390.84;;;7.86;69.25
48614;BME280;34408;51.426;5.444;2024-02-26T13:06:35;100396.16;;;7.92;69.14
48614;BME280;34408;51.426;5.444;2024-02-26T13:09:03;100395.22;;;7.80;69.33
48614;BME280;34408;51.426;5.444;2024-02-26T13:11:31;100401.03;;;8.02;69.21
48614;BME280;34408;51.426;5.444;2024-02-26T13:13:59;100408.03;;;8.03;69.31
48614;BME280;34408;51.426;5.444;2024-02-26T13:16:30;100416.84;;;8.10;68.35
48614;BME280;34408;51.426;5.444;2024-02-26T13:19:08;100416.66;;;8.05;69.21
48614;BME280;34408;51.426;5.444;2024-02-26T13:21:37;100415.97;;;8.16;68.33
48614;BME280;34408;51.426;5.444;2024-02-26T13:24:06;100426.03;;;8.21;68.80